Time;durP1;ratioP1;P1;durP2;ratioP2;P2;SDS_P1;SDS_P2;PMS_P1;PMS_P2;Temp;Humidity;BMP_temperature;BMP_pressure;BME280_temperature;BME280_humidity;BME280_pressure;Samples;Min_cycle;Max_cycle;Signal;HPM_P1;HPM_P2
2022/07/23 00:00:09;;;;;;;4.15;2.00;;;;;;;15.26;75.85;100928.09;5076231;28;20028;-71
2022/07/23 00:02:34;;;;;;;6.20;2.20;;;;;;;15.26;75.84;100930.06;5057455;28;20108;-72
2022/07/23 00:05:00;;;;;;;5.60;2.08;;;;;;;15.23;75.78;100923.13;5059121;28;20040;-71
2022/07/23 00:07:26;;;;;;;5.65;2.03;;;;;;;15.20;75.89;100926.56;5059222;28;20032;-71
2022/07/23 00:09:51;;;;;;;4.78;2.05;;;;;;;15.19;75.68;100919.31;5059033;28;20062;-71
2022/07/23 00:12:16;;;;;;;3.78;2.10;;;;;;;15.17;76.37;100925.22;5076104;28;20029;-71
2022/07/23 00:14:42;;;;;;;4.47;2.20;;;;;;;15.16;76.29;100919.94;5042031;28;20507;-72
2022/07/23 00:17:07;;;;;;;5.15;1.83;;;;;;;15.12;76.24;100921.69;5075501;28;20033;-71
2022/07/23 00:19:33;;;;;;;3.78;2.08;;;;;;;15.10;76.10;100924.84;5042161;28;20063;-71
2022/07/23 00:21:58;;;;;;;4.75;2.13;;;;;;;15.08;76.50;100931.88;5076731;28;20039;-71
2022/07/23 00:24:24;;;;;;;4.70;2.17;;;;;;;15.05;76.57;100927.75;5076438;28;20420;-72
2022/07/23 00:26:49;;;;;;;4.72;2.50;;;;;;;15.03;76.71;100923.59;5075077;28;20028;-71
2022/07/23 00:29:15;;;;;;;4.35;2.25;;;;;;;15.01;76.54;100920.28;5076650;28;20028;-71
2022/07/23 00:31:41;;;;;;;4.80;1.90;;;;;;;14.98;76.62;100916.97;5076442;28;20473;-71
2022/07/23 00:34:06;;;;;;;3.50;1.92;;;;;;;14.95;76.64;100922.38;5108673;28;20024;-72
2022/07/23 00:36:32;;;;;;;6.22;2.10;;;;;;;14.95;76.95;100917.59;5041660;28;20021;-71
2022/07/23 00:38:57;;;;;;;4.65;2.38;;;;;;;14.94;76.97;100921.53;5059102;28;20043;-72
2022/07/23 00:41:23;;;;;;;6.65;2.75;;;;;;;14.92;76.96;100920.19;5047144;28;20040;-71
2022/07/23 00:43:48;;;;;;;3.95;1.90;;;;;;;14.94;76.67;100927.13;5076262;28;20037;-71
2022/07/23 00:46:21;;;;;;;5.03;1.85;;;;;;;14.90;76.86;100923.28;5055495;28;20036;-71
2022/07/23 00:48:47;;;;;;;5.00;2.00;;;;;;;14.87;76.90;100917.50;5092131;28;20029;-72
2022/07/23 00:51:15;;;;;;;3.92;2.15;;;;;;;14.86;77.11;100915.88;5071042;28;20174;-72
2022/07/23 00:53:41;;;;;;;3.65;2.10;;;;;;;14.85;76.89;100917.84;5052798;28;20030;-71
2022/07/23 00:56:06;;;;;;;5.45;2.35;;;;;;;14.84;77.02;100918.97;5054903;28;20033;-72
2022/07/23 00:58:34;;;;;;;3.85;2.00;;;;;;;14.81;77.20;100914.00;5074925;28;20044;-71
2022/07/23 01:00:59;;;;;;;4.15;1.90;;;;;;;14.80;76.71;100919.91;5074877;28;20036;-72
2022/07/23 01:03:24;;;;;;;4.38;2.03;;;;;;;14.76;76.95;100916.91;5075745;28;20028;-72
2022/07/23 01:05:50;;;;;;;3.72;2.00;;;;;;;14.78;77.04;100913.81;5076021;28;20020;-72
2022/07/23 01:08:16;;;;;;;3.70;1.88;;;;;;;14.73;77.15;100914.72;5057962;28;20500;-72
2022/07/23 01:10:42;;;;;;;4.53;2.00;;;;;;;14.75;77.42;100915.25;5057069;28;20068;-71
2022/07/23 01:13:09;;;;;;;3.50;1.85;;;;;;;14.72;77.34;100911.09;5054950;28;20394;-72
2022/07/23 01:15:35;;;;;;;4.95;2.03;;;;;;;14.68;77.66;100906.44;5075675;28;20032;-72
2022/07/23 01:18:01;;;;;;;4.68;2.30;;;;;;;14.63;77.79;100901.81;5057946;28;20473;-72
2022/07/23 01:20:26;;;;;;;4.25;2.30;;;;;;;14.62;77.62;100902.94;5074417;28;20111;-72
2022/07/23 01:22:52;;;;;;;7.57;2.30;;;;;;;14.58;78.03;100901.91;5075886;28;20028;-71
2022/07/23 01:25:19;;;;;;;4.75;2.20;;;;;;;14.59;77.95;100897.97;5058205;28;20025;-71
2022/07/23 01:27:44;;;;;;;3.63;1.92;;;;;;;14.53;77.96;100900.03;5066778;28;20162;-72
2022/07/23 01:30:10;;;;;;;5.20;2.47;;;;;;;14.53;78.33;100905.63;5069712;28;20029;-71
2022/07/23 01:32:35;;;;;;;3.58;2.20;;;;;;;14.51;78.41;100899.50;5074316;28;20037;-71
2022/07/23 01:35:01;;;;;;;4.18;2.00;;;;;;;14.52;78.08;100898.41;5075157;28;20028;-71
2022/07/23 01:37:26;;;;;;;3.40;1.80;;;;;;;14.48;78.19;100891.72;5074468;28;20542;-71
2022/07/23 01:39:52;;;;;;;5.47;2.50;;;;;;;14.48;78.04;100891.72;5075741;28;20104;-72
2022/07/23 01:42:17;;;;;;;5.65;2.00;;;;;;;14.47;78.10;100892.88;5078069;28;20028;-72
2022/07/23 01:44:43;;;;;;;5.20;1.95;;;;;;;14.44;78.15;100896.28;5079531;28;20036;-71
2022/07/23 01:47:08;;;;;;;4.05;2.00;;;;;;;14.45;78.00;100892.34;5078573;28;20032;-72
2022/07/23 01:49:34;;;;;;;3.47;2.20;;;;;;;14.44;78.36;100890.72;5078127;28;20035;-71
2022/07/23 01:51:59;;;;;;;4.35;2.20;;;;;;;14.43;78.32;100889.06;5079273;28;20040;-71
2022/07/23 01:54:29;;;;;;;6.82;2.20;;;;;;;14.43;78.23;100885.41;5073278;28;20051;-71
2022/07/23 01:56:54;;;;;;;4.32;2.20;;;;;;;14.44;78.25;100875.91;5079897;28;20039;-71
2022/07/23 01:59:20;;;;;;;3.15;1.70;;;;;;;14.36;78.66;100880.25;5041430;28;20049;-71
2022/07/23 02:01:46;;;;;;;4.60;2.35;;;;;;;14.39;78.55;100878.81;5056091;28;20033;-71
2022/07/23 02:04:11;;;;;;;3.47;1.90;;;;;;;14.36;78.66;100877.47;5078893;28;20029;-72
2022/07/23 02:06:37;;;;;;;4.63;2.00;;;;;;;14.39;78.58;100882.41;5074443;28;20430;-71
2022/07/23 02:09:02;;;;;;;6.53;1.98;;;;;;;14.35;79.05;100881.41;5094590;28;20385;-71
2022/07/23 02:11:28;;;;;;;4.00;2.47;;;;;;;14.35;78.94;100877.75;5078153;28;20081;-72
2022/07/23 02:13:53;;;;;;;5.18;2.17;;;;;;;14.32;79.12;100882.03;5061481;28;20393;-71
2022/07/23 02:16:19;;;;;;;4.35;2.05;;;;;;;14.33;79.13;100882.84;5061300;28;20036;-72
2022/07/23 02:18:45;;;;;;;3.35;2.00;;;;;;;14.35;78.84;100880.53;5077370;28;20052;-71
2022/07/23 02:21:11;;;;;;;3.67;1.92;;;;;;;14.36;79.14;100885.03;5079079;28;20029;-72
2022/07/23 02:23:37;;;;;;;6.50;2.42;;;;;;;14.29;79.45;100879.81;5067752;28;20024;-72
2022/07/23 02:26:02;;;;;;;6.50;2.20;;;;;;;14.28;79.39;100897.72;5078811;28;20120;-72
2022/07/23 02:28:27;;;;;;;4.53;2.30;;;;;;;14.27;79.25;100891.31;5077599;28;20031;-71
2022/07/23 02:30:53;;;;;;;5.28;2.33;;;;;;;14.28;79.31;100897.72;5079140;28;20166;-72
2022/07/23 02:33:18;;;;;;;4.20;2.15;;;;;;;14.28;79.05;100900.53;5057907;28;20440;-72
2022/07/23 02:35:44;;;;;;;3.97;1.98;;;;;;;14.25;79.50;100904.75;5073032;28;20033;-72
2022/07/23 02:38:09;;;;;;;3.67;2.20;;;;;;;14.30;79.49;100906.66;5077460;28;20086;-72
2022/07/23 02:40:35;;;;;;;3.35;2.03;;;;;;;14.27;79.65;100910.88;5078597;28;20024;-72
2022/07/23 02:43:00;;;;;;;3.10;2.10;;;;;;;14.29;79.44;100916.13;5060393;28;20028;-72
2022/07/23 02:45:26;;;;;;;4.53;2.20;;;;;;;14.24;79.93;100919.88;5078477;28;20029;-72
2022/07/23 02:47:51;;;;;;;4.95;2.20;;;;;;;14.25;79.91;100920.72;5077607;28;20055;-72
2022/07/23 02:50:17;;;;;;;4.05;2.03;;;;;;;14.25;80.04;100921.53;5093977;28;20032;-72
2022/07/23 02:52:42;;;;;;;7.10;2.28;;;;;;;14.27;80.08;100926.81;5078084;28;20028;-72
2022/07/23 02:55:08;;;;;;;2.58;1.77;;;;;;;14.26;79.99;100927.94;5060719;28;20032;-72
2022/07/23 02:57:33;;;;;;;6.07;2.30;;;;;;;14.25;79.83;100927.13;5058998;28;20033;-72
2022/07/23 02:59:59;;;;;;;6.22;2.40;;;;;;;14.27;79.84;100921.22;5078203;28;20033;-72
2022/07/23 03:02:24;;;;;;;4.07;2.38;;;;;;;14.26;79.81;100922.34;5078150;28;20465;-72
2022/07/23 03:04:50;;;;;;;3.45;2.15;;;;;;;14.26;79.56;100917.63;5077998;28;20028;-72
2022/07/23 03:07:17;;;;;;;5.80;2.13;;;;;;;14.29;79.86;100930.97;5071627;28;20079;-72
2022/07/23 03:09:42;;;;;;;4.35;2.15;;;;;;;14.28;80.08;100925.66;5088072;28;20025;-72
2022/07/23 03:12:08;;;;;;;5.60;2.35;;;;;;;14.28;79.57;100923.69;5076922;28;20024;-72
2022/07/23 03:14:33;;;;;;;3.15;1.95;;;;;;;14.21;80.60;100914.91;5059953;28;20056;-72
2022/07/23 03:17:00;;;;;;;3.22;2.30;;;;;;;14.22;81.12;100916.56;5077728;28;20028;-71
2022/07/23 03:19:26;;;;;;;5.85;2.53;;;;;;;14.21;80.96;100917.72;5057566;28;20039;-72
2022/07/23 03:21:51;;;;;;;4.65;2.17;;;;;;;14.24;80.08;100917.09;5078154;28;20029;-72
2022/07/23 03:24:20;;;;;;;4.05;2.22;;;;;;;14.28;80.50;100911.69;5076569;28;20040;-72
2022/07/23 03:26:45;;;;;;;5.18;2.15;;;;;;;14.21;80.96;100908.50;5075689;28;20028;-71
2022/07/23 03:29:11;;;;;;;4.95;2.40;;;;;;;14.25;80.42;100913.16;5076983;28;20028;-72
2022/07/23 03:31:36;;;;;;;4.60;2.22;;;;;;;14.23;80.53;100920.19;5059861;28;20138;-72
2022/07/23 03:34:02;;;;;;;3.67;2.28;;;;;;;14.28;80.11;100920.09;5077379;28;20078;-72
2022/07/23 03:36:27;;;;;;;3.17;2.00;;;;;;;14.26;79.75;100913.97;5077310;28;20047;-72
2022/07/23 03:38:53;;;;;;;6.70;2.20;;;;;;;14.24;79.98;100911.50;5077750;28;20048;-72
2022/07/23 03:41:21;;;;;;;4.95;2.28;;;;;;;14.21;80.79;100908.50;5075668;28;20487;-72
2022/07/23 03:43:47;;;;;;;5.00;2.30;;;;;;;14.22;80.77;100899.81;5059405;28;20491;-72
2022/07/23 03:46:12;;;;;;;4.72;2.38;;;;;;;14.21;81.01;100897.34;5076116;28;20078;-72
2022/07/23 03:48:38;;;;;;;5.45;2.42;;;;;;;14.18;80.96;100898.78;5076852;28;20048;-72
2022/07/23 03:51:03;;;;;;;5.30;2.28;;;;;;;14.18;80.68;100895.13;5075943;28;20071;-72
2022/07/23 03:53:29;;;;;;;6.20;2.30;;;;;;;14.19;81.26;100900.41;5059251;28;20090;-72
2022/07/23 03:55:54;;;;;;;6.10;2.50;;;;;;;14.18;80.94;100903.50;5077228;28;20040;-72
2022/07/23 03:58:20;;;;;;;6.30;2.45;;;;;;;14.16;81.22;100906.63;5075617;28;20044;-72
2022/07/23 04:00:46;;;;;;;3.50;2.40;;;;;;;14.15;81.17;100909.72;5075612;28;20079;-71
2022/07/23 04:03:11;;;;;;;5.40;2.40;;;;;;;14.15;81.86;100909.72;5077133;28;20439;-72
2022/07/23 04:05:37;;;;;;;5.22;2.55;;;;;;;14.17;81.27;100907.44;5076310;28;20035;-72
2022/07/23 04:08:02;;;;;;;4.13;2.45;;;;;;;14.14;81.13;100891.31;5076643;28;20468;-71
2022/07/23 04:10:28;;;;;;;7.30;2.90;;;;;;;14.12;81.29;100894.41;5075435;28;20028;-71
2022/07/23 04:12:53;;;;;;;3.83;2.20;;;;;;;14.11;81.29;100906.72;5077345;28;20028;-71
2022/07/23 04:15:19;;;;;;;4.22;2.55;;;;;;;14.09;81.16;100901.44;5055632;28;20082;-72
2022/07/23 04:17:46;;;;;;;6.00;2.30;;;;;;;14.05;81.55;100911.56;5074165;28;20032;-71
2022/07/23 04:20:12;;;;;;;5.85;2.42;;;;;;;14.01;81.31;100910.56;5076294;28;20033;-72
2022/07/23 04:22:37;;;;;;;4.32;2.10;;;;;;;14.02;81.28;100917.78;5076518;28;20078;-72
2022/07/23 04:25:03;;;;;;;5.22;2.38;;;;;;;13.99;81.55;100918.41;5075352;28;20032;-72
2022/07/23 04:27:28;;;;;;;5.28;2.50;;;;;;;13.98;81.16;100915.91;5068447;28;20025;-71
2022/07/23 04:29:54;;;;;;;3.85;2.00;;;;;;;13.96;81.23;100920.97;5075750;28;20043;-71
2022/07/23 04:32:19;;;;;;;5.57;2.45;;;;;;;13.98;81.07;100921.47;5075493;28;20032;-71
2022/07/23 04:34:45;;;;;;;3.45;2.40;;;;;;;13.94;81.37;100918.47;5075964;28;21283;-71
2022/07/23 04:37:10;;;;;;;5.30;2.30;;;;;;;13.91;81.60;100930.28;5076592;28;20024;-71
2022/07/23 04:39:36;;;;;;;3.40;2.00;;;;;;;13.88;81.35;100932.84;5076285;28;20082;-71
2022/07/23 04:42:01;;;;;;;4.22;2.20;;;;;;;13.87;81.36;100926.41;5075110;28;20032;-72
2022/07/23 04:44:27;;;;;;;5.55;2.47;;;;;;;13.90;81.47;100923.03;5025577;28;20032;-71
2022/07/23 04:46:52;;;;;;;4.10;2.20;;;;;;;13.84;81.74;100929.81;5075182;28;20024;-72
2022/07/23 04:49:18;;;;;;;5.90;2.47;;;;;;;13.85;81.56;100923.94;5074269;28;20028;-71
2022/07/23 04:51:43;;;;;;;3.83;2.17;;;;;;;13.86;81.12;100924.78;5108494;28;20074;-71
2022/07/23 04:54:09;;;;;;;3.92;2.00;;;;;;;13.83;81.29;100915.03;5076130;28;20485;-72
2022/07/23 04:56:34;;;;;;;4.13;2.40;;;;;;;13.78;81.64;100928.25;5058403;28;20054;-71
2022/07/23 04:59:00;;;;;;;4.03;2.28;;;;;;;13.77;81.45;100921.84;5057859;28;20040;-71
2022/07/23 05:01:25;;;;;;;5.72;2.33;;;;;;;13.77;81.46;100927.44;5074735;28;20040;-72
2022/07/23 05:03:51;;;;;;;3.50;2.58;;;;;;;13.75;81.95;100935.28;5057652;28;20047;-72
2022/07/23 05:06:16;;;;;;;6.55;2.55;;;;;;;13.75;82.06;100942.84;5075939;28;20028;-72
2022/07/23 05:08:42;;;;;;;4.45;2.33;;;;;;;13.72;82.56;100937.84;5040207;28;20029;-72
2022/07/23 05:11:07;;;;;;;3.05;2.20;;;;;;;13.75;82.03;100935.28;5076107;28;20443;-72
2022/07/23 05:13:33;;;;;;;3.88;2.40;;;;;;;13.76;82.54;100944.47;5075890;28;20088;-71
2022/07/23 05:15:58;;;;;;;4.50;2.65;;;;;;;13.77;83.73;100944.19;5056739;28;20033;-72
2022/07/23 05:18:24;;;;;;;4.43;2.50;;;;;;;13.83;84.16;100942.13;5075721;28;20036;-72
2022/07/23 05:20:49;;;;;;;4.25;2.70;;;;;;;13.95;84.68;100936.06;5058310;28;20029;-71
2022/07/23 05:23:15;;;;;;;6.22;3.03;;;;;;;13.98;86.53;100938.22;5075561;28;20059;-71
2022/07/23 05:25:40;;;;;;;4.15;2.35;;;;;;;14.08;87.57;100943.66;5058226;28;20036;-71
2022/07/23 05:28:06;;;;;;;7.80;3.50;;;;;;;14.18;88.44;100943.47;5070324;28;20028;-71
2022/07/23 05:30:31;;;;;;;6.93;3.00;;;;;;;14.31;88.63;100941.81;5075579;28;20033;-71
2022/07/23 05:32:57;;;;;;;5.85;4.03;;;;;;;14.43;87.95;100942.16;5064606;28;20082;-71
2022/07/23 05:35:22;;;;;;;5.80;2.80;;;;;;;14.59;87.33;100936.28;5057657;28;20031;-72
2022/07/23 05:37:48;;;;;;;5.63;2.55;;;;;;;14.72;86.48;100930.69;5074315;28;20482;-72
2022/07/23 05:40:14;;;;;;;4.07;2.30;;;;;;;14.87;84.37;100931.50;5057715;28;20032;-71
2022/07/23 05:42:39;;;;;;;4.45;2.25;;;;;;;15.03;83.15;100935.59;5073959;28;20114;-72
2022/07/23 05:45:06;;;;;;;4.90;2.30;;;;;;;15.18;81.83;100940.03;5057975;28;20090;-72
2022/07/23 05:47:41;;;;;;;5.88;2.50;;;;;;;15.34;81.27;100946.91;5057821;28;20035;-72
2022/07/23 05:50:07;;;;;;;5.05;2.20;;;;;;;15.51;80.55;100946.25;5057423;28;20385;-71
2022/07/23 05:52:33;;;;;;;4.00;2.30;;;;;;;15.68;79.90;100948.38;5075219;28;20035;-72
2022/07/23 05:54:58;;;;;;;4.55;2.45;;;;;;;15.83;79.87;100953.63;5074376;28;20028;-72
2022/07/23 05:57:23;;;;;;;3.72;2.20;;;;;;;16.01;79.06;100956.53;5075168;28;20485;-72
2022/07/23 05:59:49;;;;;;;5.25;2.20;;;;;;;16.16;78.61;100960.88;5075521;28;20028;-72
2022/07/23 06:02:14;;;;;;;4.78;2.20;;;;;;;16.33;78.23;100957.38;5074339;28;20032;-72
2022/07/23 06:04:40;;;;;;;4.70;1.90;;;;;;;16.49;77.79;100955.78;5073937;28;20029;-71
2022/07/23 06:07:05;;;;;;;3.33;2.05;;;;;;;16.65;77.07;100961.78;5074396;28;20078;-71
2022/07/23 06:09:31;;;;;;;7.05;1.80;;;;;;;16.81;76.66;100960.22;5075423;28;20024;-72
2022/07/23 06:11:56;;;;;;;4.70;2.00;;;;;;;16.96;77.85;100947.72;5075325;28;20033;-71
2022/07/23 06:14:22;;;;;;;3.78;2.03;;;;;;;17.12;75.94;100954.53;5075592;28;20029;-72
2022/07/23 06:16:47;;;;;;;3.65;2.28;;;;;;;17.29;75.65;100958.50;5074978;28;20043;-66
2022/07/23 06:19:13;;;;;;;4.75;2.13;;;;;;;17.44;75.52;100952.44;5065235;28;20500;-66
2022/07/23 06:21:38;;;;;;;4.13;2.35;;;;;;;17.59;74.81;100951.91;5073520;28;20563;-66
2022/07/23 06:24:04;;;;;;;3.85;1.92;;;;;;;17.75;74.90;100952.25;5073841;28;20036;-66
2022/07/23 06:26:29;;;;;;;5.82;2.00;;;;;;;17.91;74.77;100969.44;5055294;28;20033;-66
2022/07/23 06:28:55;;;;;;;4.60;2.40;;;;;;;18.07;74.45;100964.94;5057890;28;20025;-65
2022/07/23 06:31:20;;;;;;;5.38;2.38;;;;;;;18.24;75.75;100969.69;5076622;28;20028;-66
2022/07/23 06:33:46;;;;;;;6.43;2.50;;;;;;;18.42;73.34;100973.28;5077178;28;20029;-66
2022/07/23 06:36:11;;;;;;;5.03;2.20;;;;;;;18.59;72.44;100972.41;5077589;28;20035;-66
2022/07/23 06:38:37;;;;;;;4.28;2.50;;;;;;;18.75;72.39;100973.53;5078595;28;20082;-66
2022/07/23 06:41:02;;;;;;;4.93;2.08;;;;;;;18.91;72.34;100975.75;5060654;28;20032;-65
2022/07/23 06:43:30;;;;;;;6.85;2.45;;;;;;;19.06;71.88;100977.19;5078765;28;20041;-66
2022/07/23 06:45:55;;;;;;;4.45;2.10;;;;;;;19.18;71.54;100982.88;5060916;28;20050;-65
2022/07/23 06:48:22;;;;;;;6.00;2.50;;;;;;;19.28;71.06;100982.50;5060559;28;20385;-66
2022/07/23 06:50:47;;;;;;;5.40;2.63;;;;;;;19.36;71.69;100972.31;5057788;28;20044;-66
2022/07/23 06:53:13;;;;;;;5.65;2.65;;;;;;;19.47;71.29;100978.38;5051895;28;20028;-66
2022/07/23 06:55:38;;;;;;;3.88;2.15;;;;;;;19.54;71.07;100984.28;5110850;28;20052;-66
2022/07/23 06:58:04;;;;;;;4.22;2.08;;;;;;;19.64;71.06;100983.88;5060058;28;20562;-65
2022/07/23 07:00:31;;;;;;;5.57;2.00;;;;;;;19.74;70.78;100982.66;5060167;28;20033;-65
2022/07/23 07:02:56;;;;;;;4.18;2.00;;;;;;;19.93;70.45;100982.16;5077094;28;20032;-66
2022/07/23 07:05:22;;;;;;;6.25;2.17;;;;;;;20.11;70.39;100986.44;5074814;28;20032;-65
2022/07/23 07:07:48;;;;;;;4.78;2.05;;;;;;;20.30;69.34;100985.94;5060235;28;20037;-65
2022/07/23 07:10:16;;;;;;;5.70;2.33;;;;;;;20.44;69.40;100982.78;5040282;28;20028;-66
2022/07/23 07:12:41;;;;;;;5.38;2.45;;;;;;;20.57;68.63;100983.66;5060265;28;20054;-66
2022/07/23 07:15:07;;;;;;;3.40;1.95;;;;;;;20.78;68.60;100997.66;5043708;28;20508;-65
2022/07/23 07:17:33;;;;;;;4.78;2.25;;;;;;;20.96;68.17;100987.81;5072750;28;20054;-65
2022/07/23 07:19:58;;;;;;;3.55;1.80;;;;;;;21.13;67.56;100986.75;5076916;28;20063;-66
2022/07/23 07:22:23;;;;;;;4.68;1.95;;;;;;;21.22;66.28;100986.59;5093302;28;20051;-66
2022/07/23 07:24:49;;;;;;;5.78;2.00;;;;;;;21.44;65.76;100990.97;5076615;28;20078;-65
2022/07/23 07:27:14;;;;;;;5.20;1.83;;;;;;;21.58;65.00;100997.88;5069200;28;20036;-67
2022/07/23 07:29:40;;;;;;;4.07;1.60;;;;;;;21.73;65.04;100992.63;5076234;28;20032;-67
2022/07/23 07:32:05;;;;;;;10.15;2.30;;;;;;;21.91;64.99;100999.66;5076314;28;20024;-72
2022/07/23 07:34:31;;;;;;;5.07;1.90;;;;;;;22.08;64.63;100998.53;5059340;28;20033;-71
2022/07/23 07:36:56;;;;;;;4.70;1.88;;;;;;;22.22;64.08;100998.94;5077675;28;20037;-72
2022/07/23 07:39:22;;;;;;;5.90;2.00;;;;;;;22.35;64.26;101005.38;5076532;28;20032;-72
2022/07/23 07:41:47;;;;;;;7.32;2.30;;;;;;;22.43;64.01;101012.88;5077021;28;20032;-72
2022/07/23 07:44:13;;;;;;;6.00;2.00;;;;;;;22.56;63.97;101012.78;5076444;28;20029;-68
2022/07/23 07:46:38;;;;;;;6.53;1.77;;;;;;;22.62;63.16;101009.34;5076258;28;20020;-68
2022/07/23 07:49:04;;;;;;;8.00;3.08;;;;;;;22.69;63.15;101017.19;5023831;28;20033;-68
2022/07/23 07:51:29;;;;;;;7.22;2.47;;;;;;;22.73;62.28;101018.94;5076228;28;20033;-68
2022/07/23 07:53:55;;;;;;;6.82;2.33;;;;;;;22.82;62.63;101017.94;5040673;28;20024;-67
2022/07/23 07:56:21;;;;;;;6.10;2.20;;;;;;;22.85;62.56;101020.84;5059413;28;20405;-67
2022/07/23 07:58:46;;;;;;;7.55;2.67;;;;;;;22.79;62.92;101015.81;5058993;28;20048;-67
2022/07/23 08:01:12;;;;;;;9.40;2.53;;;;;;;22.85;62.59;101018.03;5076197;28;20029;-67
2022/07/23 08:03:37;;;;;;;6.88;1.90;;;;;;;22.84;62.30;101016.34;5073588;28;20033;-67
2022/07/23 08:06:03;;;;;;;9.20;2.90;;;;;;;22.80;62.21;101011.81;5059185;28;20044;-67
2022/07/23 08:08:28;;;;;;;6.30;2.30;;;;;;;22.88;62.36;101013.63;5075781;28;20089;-67
2022/07/23 08:10:54;;;;;;;6.43;2.20;;;;;;;22.88;62.38;101019.31;5076174;28;20036;-67
2022/07/23 08:13:19;;;;;;;4.57;1.92;;;;;;;22.92;62.28;101020.19;5075536;28;20036;-67
2022/07/23 08:15:45;;;;;;;5.38;2.17;;;;;;;22.93;62.42;101011.34;5076538;28;20486;-67
2022/07/23 08:18:10;;;;;;;7.93;2.78;;;;;;;23.01;61.93;101023.69;5075578;28;20032;-67
2022/07/23 08:20:36;;;;;;;6.40;2.30;;;;;;;23.10;61.90;101023.53;5058888;28;20028;-67
2022/07/23 08:23:06;;;;;;;4.00;1.60;;;;;;;23.18;62.02;101026.16;5023426;28;20056;-68
2022/07/23 08:25:39;;;;;;;10.13;3.03;;;;;;;23.33;60.26;101030.16;5069562;28;20050;-67
2022/07/23 08:28:07;;;;;;;7.80;3.22;;;;;;;23.46;60.26;101027.19;5068756;28;20388;-67
2022/07/23 08:30:32;;;;;;;8.98;3.00;;;;;;;23.49;60.46;101027.28;5059189;28;20079;-68
2022/07/23 08:33:11;;;;;;;8.13;3.20;;;;;;;23.55;59.92;101019.31;5058556;28;20044;-67
2022/07/23 08:35:38;;;;;;;7.05;2.95;;;;;;;23.54;59.58;101029.00;5059625;28;20495;-68
2022/07/23 08:38:04;;;;;;;9.32;3.72;;;;;;;23.56;59.80;101023.78;5075364;28;20090;-68
2022/07/23 08:40:31;;;;;;;8.00;2.90;;;;;;;23.68;58.83;101034.16;5058836;28;20034;-68
2022/07/23 08:42:57;;;;;;;6.57;2.95;;;;;;;23.74;58.85;101030.72;5059022;28;20071;-67
2022/07/23 08:45:23;;;;;;;10.63;2.97;;;;;;;23.78;59.48;101028.78;5075154;28;20599;-68
2022/07/23 08:47:56;;;;;;;13.35;4.15;;;;;;;23.76;58.46;101027.50;5055204;28;20036;-68
2022/07/23 08:50:22;;;;;;;11.13;4.05;;;;;;;23.76;58.42;101039.66;5074059;28;20081;-67
2022/07/23 08:52:51;;;;;;;10.18;3.90;;;;;;;23.84;58.08;101034.97;5074930;28;20028;-67
2022/07/23 08:55:18;;;;;;;7.07;3.17;;;;;;;23.94;58.03;101037.22;5058513;28;20485;-67
2022/07/23 08:57:44;;;;;;;7.78;3.00;;;;;;;24.02;58.60;101036.19;5058105;28;20107;-68
2022/07/23 09:00:10;;;;;;;7.15;3.35;;;;;;;24.14;59.00;101046.56;5047314;28;20044;-67
2022/07/23 09:02:40;;;;;;;5.93;2.70;;;;;;;24.24;58.27;101031.78;5074639;28;20052;-68
2022/07/23 09:05:06;;;;;;;8.10;3.75;;;;;;;24.18;57.35;101030.44;5058232;28;20480;-68
2022/07/23 09:07:31;;;;;;;7.57;3.13;;;;;;;24.25;56.43;101041.09;5054845;28;20074;-68
2022/07/23 09:10:08;;;;;;;8.50;3.47;;;;;;;24.25;56.46;101032.59;5074651;28;20544;-68
2022/07/23 09:12:33;;;;;;;10.32;3.35;;;;;;;24.27;55.86;101033.84;5070109;28;20460;-68
2022/07/23 09:15:04;;;;;;;6.82;2.95;;;;;;;24.25;55.58;101036.25;5075983;28;20037;-68
2022/07/23 09:17:29;;;;;;;9.45;3.35;;;;;;;24.25;57.12;101035.41;5058435;28;20645;-68
2022/07/23 09:19:54;;;;;;;10.07;3.63;;;;;;;24.27;56.21;101028.19;5057680;28;20036;-67
2022/07/23 09:22:26;;;;;;;6.93;3.10;;;;;;;24.37;55.57;101026.72;5056713;28;20037;-67
2022/07/23 09:25:14;;;;;;;7.85;3.38;;;;;;;24.49;56.36;101032.28;5074740;28;20032;-67
2022/07/23 09:27:46;;;;;;;9.30;3.10;;;;;;;24.71;55.77;101032.66;5067180;28;20060;-67
2022/07/23 09:30:12;;;;;;;;;;;;;;;24.92;55.29;101026.56;5058314;28;20046;-68
2022/07/23 09:32:39;;;;;;;7.10;3.22;;;;;;;25.04;53.04;101025.53;5074900;28;20311;-67
2022/07/23 09:35:04;;;;;;;5.30;2.58;;;;;;;25.21;52.99;101035.56;5039903;28;20041;-67
2022/07/23 09:37:30;;;;;;;6.78;2.90;;;;;;;25.35;53.00;101025.28;5058094;28;20031;-67
2022/07/23 09:40:04;;;;;;;7.47;2.70;;;;;;;25.46;52.65;101036.78;5037883;28;20060;-68
2022/07/23 09:42:29;;;;;;;7.00;2.97;;;;;;;25.49;51.72;101040.88;5037860;28;20082;-68
2022/07/23 09:44:56;;;;;;;8.60;3.03;;;;;;;25.51;51.15;101032.78;5057915;28;20032;-68
2022/07/23 09:47:23;;;;;;;8.07;3.33;;;;;;;25.50;51.45;101034.00;5074627;28;20086;-67
2022/07/23 09:49:58;;;;;;;6.10;2.70;;;;;;;25.57;52.37;101037.75;5074353;28;20035;-68
2022/07/23 09:52:28;;;;;;;7.45;2.70;;;;;;;25.67;52.00;101038.31;5065141;28;20025;-67
2022/07/23 09:55:00;;;;;;;6.63;2.47;;;;;;;25.82;52.26;101038.09;5041171;28;20056;-67
2022/07/23 09:57:26;;;;;;;9.50;2.72;;;;;;;26.00;50.32;101027.00;5057435;28;20033;-68
2022/07/23 09:59:52;;;;;;;6.63;2.20;;;;;;;26.22;50.79;101027.28;5054161;28;20052;-68
2022/07/23 10:02:18;;;;;;;6.03;2.70;;;;;;;26.45;49.07;101019.38;5054290;28;20028;-68
2022/07/23 10:04:44;;;;;;;7.32;2.35;;;;;;;26.68;49.51;101027.78;5042642;28;20029;-68
2022/07/23 10:07:10;;;;;;;4.82;2.80;;;;;;;26.86;47.45;101018.59;5041517;28;20029;-68
2022/07/23 10:09:39;;;;;;;6.72;2.65;;;;;;;26.96;46.71;101027.22;5043362;28;20143;-68
2022/07/23 10:14:38;;;;;;;7.95;2.70;;;;;;;27.11;46.43;101022.47;5059167;28;20104;-68
2022/07/23 10:17:04;;;;;;;6.72;2.63;;;;;;;27.12;46.77;101023.28;5058028;28;20029;-67
2022/07/23 10:19:30;;;;;;;7.10;3.20;;;;;;;27.06;45.44;101024.88;5059037;28;20028;-67
2022/07/23 10:22:20;;;;;;;7.35;2.72;;;;;;;26.98;45.04;101020.31;5060780;28;20131;-68
2022/07/23 10:24:47;;;;;;;6.03;2.90;;;;;;;27.05;44.42;101014.66;5063196;28;20044;-67
2022/07/23 10:27:30;;;;;;;6.57;2.60;;;;;;;27.16;43.87;101015.59;5078745;28;20436;-68
2022/07/23 10:30:18;;;;;;;5.97;2.42;;;;;;;27.27;43.91;101013.63;5074662;28;20667;-68
2022/07/23 10:33:02;;;;;;;4.32;2.10;;;;;;;27.42;44.01;101008.06;5070608;28;20358;-68
2022/07/23 10:35:37;;;;;;;6.75;2.40;;;;;;;27.57;44.26;101001.22;5059046;28;20029;-68
2022/07/23 10:38:11;;;;;;;4.90;2.10;;;;;;;27.67;43.10;101008.22;5076664;28;20123;-67
2022/07/23 10:40:37;;;;;;;5.28;2.45;;;;;;;27.77;42.48;101001.72;5057776;28;20041;-67
2022/07/23 10:43:02;;;;;;;7.15;2.20;;;;;;;27.89;42.91;101007.13;5060610;28;20097;-67
2022/07/23 10:45:34;;;;;;;5.32;2.55;;;;;;;28.06;43.24;101009.22;5060846;28;20036;-67
2022/07/23 10:48:13;;;;;;;7.53;2.42;;;;;;;28.18;42.89;101008.03;5077126;28;20028;-67
2022/07/23 10:50:39;;;;;;;5.32;2.40;;;;;;;28.24;41.82;101003.56;5077231;28;20044;-67
2022/07/23 10:53:13;;;;;;;4.30;2.20;;;;;;;28.30;41.77;101001.13;5059980;28;20032;-68
2022/07/23 10:55:41;;;;;;;4.15;1.80;;;;;;;28.40;42.05;100993.81;5026816;28;20033;-68
2022/07/23 10:58:07;;;;;;;4.55;2.20;;;;;;;28.41;41.60;100990.53;5060375;28;20075;-68
2022/07/23 11:00:33;;;;;;;4.38;1.90;;;;;;;28.43;40.63;100993.84;5050042;28;20476;-68
2022/07/23 11:02:59;;;;;;;8.15;2.15;;;;;;;28.57;40.56;100997.97;5060279;28;20033;-68
2022/07/23 11:05:46;;;;;;;5.57;2.05;;;;;;;28.66;40.83;100984.88;5060573;28;20059;-67
2022/07/23 11:08:11;;;;;;;5.40;1.90;;;;;;;28.81;40.91;100993.50;5076602;28;20487;-67
2022/07/23 11:10:38;;;;;;;6.93;2.03;;;;;;;28.98;41.34;101006.97;5078185;28;20033;-67
2022/07/23 11:13:22;;;;;;;5.97;1.85;;;;;;;29.17;41.23;101000.06;5059646;28;20067;-67
2022/07/23 11:16:02;;;;;;;3.58;1.50;;;;;;;29.41;41.44;100989.78;5072733;28;20107;-67
2022/07/23 11:18:40;;;;;;;14.02;3.17;;;;;;;29.34;41.39;100993.47;5059926;28;20051;-67
2022/07/23 11:21:26;;;;;;;6.85;2.28;;;;;;;29.41;40.77;100989.78;5078008;28;20047;-67
2022/07/23 11:24:08;;;;;;;7.15;2.00;;;;;;;29.37;39.36;100984.06;5069354;28;20033;-67